Time;durP1;ratioP1;P1;durP2;ratioP2;P2;SDS_P1;SDS_P2;PMS_P1;PMS_P2;Temp;Humidity;BMP_temperature;BMP_pressure;BME280_temperature;BME280_humidity;BME280_pressure;Samples;Min_cycle;Max_cycle;Signal;HPM_P1;HPM_P2
2021/08/13 00:00:53;;;;;;;12.23;10.13;;;;;;;;;;5030962;28;20240;-69
2021/08/13 00:03:19;;;;;;;10.70;9.35;;;;;;;;;;5031036;28;20415;-70
2021/08/13 00:05:45;;;;;;;10.50;9.23;;;;;;;;;;5031037;28;20181;-70
2021/08/13 00:08:10;;;;;;;11.65;9.35;;;;;;;;;;5030886;28;20206;-70
2021/08/13 00:10:36;;;;;;;16.98;8.70;;;;;;;;;;5030195;28;20697;-67
2021/08/13 00:13:01;;;;;;;11.48;9.30;;;;;;;;;;5013370;28;20551;-67
2021/08/13 00:15:26;;;;;;;10.82;9.13;;;;;;;;;;5013151;28;20182;-67
2021/08/13 00:17:53;;;;;;;10.65;9.02;;;;;;;;;;5030679;28;20217;-67
2021/08/13 00:20:20;;;;;;;12.27;8.98;;;;;;;;;;5030539;28;20662;-67
2021/08/13 00:22:45;;;;;;;11.15;9.90;;;;;;;;;;5030344;28;20201;-68
2021/08/13 00:25:10;;;;;;;12.80;10.03;;;;;;;;;;5030807;28;20557;-67
2021/08/13 00:27:36;;;;;;;12.93;10.40;;;;;;;;;;5030913;28;20485;-68
2021/08/13 00:30:02;;;;;;;13.13;11.10;;;;;;;;;;5012704;28;20175;-68
2021/08/13 00:32:27;;;;;;;12.13;10.52;;;;;;;;;;5030200;28;20184;-67
2021/08/13 00:34:52;;;;;;;11.55;10.20;;;;;;;;;;5029791;28;20174;-67
2021/08/13 00:37:17;;;;;;;12.13;10.37;;;;;;;;;;5030735;28;20198;-67
2021/08/13 00:39:43;;;;;;;11.52;10.10;;;;;;;;;;5030475;28;20533;-68
2021/08/13 00:42:08;;;;;;;12.77;10.77;;;;;;;;;;5030475;28;20198;-67
2021/08/13 00:44:34;;;;;;;17.98;13.65;;;;;;;;;;5012690;28;20171;-67
2021/08/13 00:46:59;;;;;;;17.35;13.27;;;;;;;;;;5030674;28;20198;-67
2021/08/13 00:49:24;;;;;;;20.60;15.27;;;;;;;;;;5020318;28;20668;-67
2021/08/13 00:51:49;;;;;;;21.27;17.77;;;;;;;;;;5030823;28;20175;-68
2021/08/13 00:54:14;;;;;;;20.05;15.35;;;;;;;;;;5030279;28;20186;-67
2021/08/13 00:56:40;;;;;;;20.27;15.73;;;;;;;;;;5030493;28;20178;-68
2021/08/13 00:59:09;;;;;;;20.30;15.75;;;;;;;;;;5030030;28;20273;-68
2021/08/13 01:01:34;;;;;;;19.35;15.38;;;;;;;;;;5030541;28;20202;-67
2021/08/13 01:03:59;;;;;;;19.77;14.82;;;;;;;;;;5030333;28;20569;-68
2021/08/13 01:06:25;;;;;;;23.70;18.05;;;;;;;;;;5030641;28;20170;-67
2021/08/13 01:08:50;;;;;;;26.63;18.70;;;;;;;;;;5034276;28;20240;-67
2021/08/13 01:11:34;;;;;;;26.75;19.23;;;;;;;;;;5034070;28;20736;-68
2021/08/13 01:14:01;;;;;;;24.90;18.55;;;;;;;;;;5033995;28;20236;-67
2021/08/13 01:16:27;;;;;;;22.27;17.52;;;;;;;;;;5034092;28;20174;-67
2021/08/13 01:18:59;;;;;;;21.10;16.85;;;;;;;;;;5033471;28;20255;-68
2021/08/13 01:21:37;;;;;;;17.67;14.30;;;;;;;;;;5015378;28;20745;-68
2021/08/13 01:24:07;;;;;;;21.33;16.70;;;;;;;;;;5033018;28;20177;-67
2021/08/13 01:26:34;;;;;;;18.83;15.35;;;;;;;;;;5033334;28;20713;-67
2021/08/13 01:29:08;;;;;;;16.45;13.98;;;;;;;;;;5033425;28;20190;-67
2021/08/13 01:31:48;;;;;;;16.13;13.05;;;;;;;;;;5028618;28;20189;-67
2021/08/13 01:34:15;;;;;;;18.08;13.80;;;;;;;;;;5033451;28;20202;-67
2021/08/13 01:36:41;;;;;;;14.90;12.63;;;;;;;;;;5033581;28;20221;-68
2021/08/13 01:39:06;;;;;;;18.58;14.80;;;;;;;;;;5015448;28;20300;-68
2021/08/13 01:41:36;;;;;;;24.33;16.70;;;;;;;;;;5033534;28;20700;-67
2021/08/13 01:44:02;;;;;;;25.60;17.50;;;;;;;;;;5033294;28;20209;-68
2021/08/13 01:46:28;;;;;;;18.08;13.95;;;;;;;;;;5033076;28;20174;-68
2021/08/13 01:48:55;;;;;;;18.85;14.30;;;;;;;;;;5024983;28;20233;-68
2021/08/13 01:51:20;;;;;;;19.48;16.35;;;;;;;;;;5033467;28;20174;-67
2021/08/13 01:53:47;;;;;;;18.65;15.05;;;;;;;;;;5015486;28;20255;-67
2021/08/13 01:56:12;;;;;;;20.88;15.60;;;;;;;;;;5033236;28;20186;-67
2021/08/13 01:58:37;;;;;;;19.65;15.40;;;;;;;;;;5032772;28;20260;-67
2021/08/13 02:01:03;;;;;;;23.35;17.75;;;;;;;;;;5033144;28;20229;-67
2021/08/13 02:03:28;;;;;;;24.85;17.35;;;;;;;;;;5033235;28;20174;-68
2021/08/13 02:05:54;;;;;;;30.45;22.70;;;;;;;;;;5033107;28;20221;-68
2021/08/13 02:08:20;;;;;;;34.40;20.88;;;;;;;;;;5032747;28;20565;-67
2021/08/13 02:10:45;;;;;;;33.40;24.38;;;;;;;;;;5032554;28;20727;-67
2021/08/13 02:13:10;;;;;;;30.17;21.10;;;;;;;;;;5032195;28;20267;-67
2021/08/13 02:15:37;;;;;;;29.38;21.20;;;;;;;;;;5032982;28;20183;-67
2021/08/13 02:18:05;;;;;;;28.33;19.77;;;;;;;;;;5032447;28;20221;-67
2021/08/13 02:20:32;;;;;;;25.40;19.75;;;;;;;;;;5032226;28;20171;-68
2021/08/13 02:22:57;;;;;;;27.23;20.20;;;;;;;;;;5033234;28;20231;-68
2021/08/13 02:25:22;;;;;;;29.13;21.02;;;;;;;;;;5031322;28;20171;-68
2021/08/13 02:27:48;;;;;;;28.50;21.20;;;;;;;;;;5032828;28;20225;-67
2021/08/13 02:30:13;;;;;;;26.35;20.10;;;;;;;;;;5014618;28;20178;-68
2021/08/13 02:32:38;;;;;;;26.90;20.35;;;;;;;;;;5015145;28;20727;-67
2021/08/13 02:35:04;;;;;;;28.77;21.30;;;;;;;;;;5032495;28;20182;-68
2021/08/13 02:37:39;;;;;;;27.42;20.95;;;;;;;;;;5031697;28;20261;-67
2021/08/13 02:40:06;;;;;;;29.80;21.15;;;;;;;;;;5032269;28;20173;-67
2021/08/13 02:42:51;;;;;;;25.85;21.48;;;;;;;;;;5032187;28;20609;-67
2021/08/13 02:45:20;;;;;;;26.35;19.58;;;;;;;;;;4991189;28;20218;-68
2021/08/13 02:47:46;;;;;;;23.92;18.75;;;;;;;;;;5012407;28;20597;-67
2021/08/13 02:50:12;;;;;;;23.95;17.85;;;;;;;;;;5012647;28;20197;-67
2021/08/13 02:52:44;;;;;;;21.40;15.65;;;;;;;;;;5032245;28;20630;-67
2021/08/13 02:55:11;;;;;;;22.55;16.98;;;;;;;;;;5032124;28;20595;-67
2021/08/13 02:57:38;;;;;;;21.08;17.30;;;;;;;;;;5031957;28;20206;-68
2021/08/13 03:00:04;;;;;;;19.25;15.20;;;;;;;;;;5031646;28;20186;-67
2021/08/13 03:02:31;;;;;;;23.05;17.65;;;;;;;;;;5031958;28;20551;-67
2021/08/13 03:04:57;;;;;;;20.60;16.27;;;;;;;;;;5031819;28;20177;-67
2021/08/13 03:07:23;;;;;;;22.52;16.70;;;;;;;;;;5030515;28;20190;-68
2021/08/13 03:09:48;;;;;;;24.08;18.33;;;;;;;;;;5031584;28;20182;-67
2021/08/13 03:12:14;;;;;;;22.92;17.23;;;;;;;;;;5031751;28;20183;-67
2021/08/13 03:14:39;;;;;;;22.42;15.30;;;;;;;;;;5031776;28;20280;-67
2021/08/13 03:17:05;;;;;;;19.35;14.32;;;;;;;;;;5031600;28;20207;-67
2021/08/13 03:19:30;;;;;;;19.50;14.40;;;;;;;;;;5013539;28;20306;-67
2021/08/13 03:21:55;;;;;;;19.33;14.63;;;;;;;;;;5013902;28;20479;-68
2021/08/13 03:24:21;;;;;;;22.55;16.55;;;;;;;;;;5031713;28;20312;-67
2021/08/13 03:26:46;;;;;;;21.08;16.65;;;;;;;;;;5013953;28;20248;-67
2021/08/13 03:29:12;;;;;;;21.02;15.35;;;;;;;;;;5031522;28;20175;-67
2021/08/13 03:31:38;;;;;;;22.75;17.40;;;;;;;;;;5031316;28;20252;-68
2021/08/13 03:34:05;;;;;;;21.73;16.02;;;;;;;;;;5033603;28;20680;-68
2021/08/13 03:36:30;;;;;;;26.23;19.08;;;;;;;;;;5032647;28;20224;-68
2021/08/13 03:38:55;;;;;;;26.27;18.73;;;;;;;;;;5031924;28;20175;-67
2021/08/13 03:41:20;;;;;;;23.55;16.35;;;;;;;;;;5031269;28;20216;-68
2021/08/13 03:43:46;;;;;;;28.42;18.75;;;;;;;;;;5031284;28;20186;-67
2021/08/13 03:46:11;;;;;;;25.30;18.42;;;;;;;;;;5030887;28;20179;-67
2021/08/13 03:48:36;;;;;;;21.85;16.42;;;;;;;;;;5024285;28;20664;-67
2021/08/13 03:51:01;;;;;;;25.15;18.63;;;;;;;;;;5030872;28;20202;-67
2021/08/13 03:53:27;;;;;;;24.45;17.30;;;;;;;;;;5031272;28;20174;-67
2021/08/13 03:55:52;;;;;;;26.05;16.25;;;;;;;;;;5030944;28;20556;-67
2021/08/13 03:58:17;;;;;;;21.33;16.30;;;;;;;;;;5031312;28;20202;-67
2021/08/13 04:00:42;;;;;;;23.05;16.55;;;;;;;;;;5030792;28;20284;-67
2021/08/13 04:03:07;;;;;;;26.77;20.35;;;;;;;;;;5031128;28;20525;-67
2021/08/13 04:05:32;;;;;;;24.03;17.57;;;;;;;;;;5030696;28;20162;-67
2021/08/13 04:07:58;;;;;;;24.83;17.50;;;;;;;;;;5031082;28;20827;-67
2021/08/13 04:10:23;;;;;;;25.63;17.58;;;;;;;;;;5012880;28;20667;-67
2021/08/13 04:12:48;;;;;;;33.43;22.67;;;;;;;;;;5031127;28;20643;-67
2021/08/13 04:15:13;;;;;;;35.28;23.67;;;;;;;;;;5030776;28;20403;-67
2021/08/13 04:17:38;;;;;;;41.13;25.75;;;;;;;;;;5013036;28;20685;-68
2021/08/13 04:20:04;;;;;;;37.08;25.98;;;;;;;;;;5030452;28;20178;-67
2021/08/13 04:22:29;;;;;;;36.58;25.13;;;;;;;;;;5030881;28;20535;-68
2021/08/13 04:24:54;;;;;;;36.75;24.52;;;;;;;;;;5030803;28;20281;-68
2021/08/13 04:27:20;;;;;;;41.58;27.05;;;;;;;;;;5030624;28;20285;-68
2021/08/13 04:29:45;;;;;;;41.13;26.63;;;;;;;;;;5011674;28;20670;-67
2021/08/13 04:32:10;;;;;;;38.03;25.08;;;;;;;;;;5030798;28;20179;-68
2021/08/13 04:34:35;;;;;;;41.47;26.88;;;;;;;;;;5031004;28;20206;-68
2021/08/13 04:37:01;;;;;;;46.77;28.20;;;;;;;;;;5029994;28;20209;-68
2021/08/13 04:39:26;;;;;;;41.33;25.95;;;;;;;;;;5030704;28;20412;-67
2021/08/13 04:41:51;;;;;;;42.75;27.23;;;;;;;;;;5031413;28;20198;-68
2021/08/13 04:44:16;;;;;;;38.75;25.17;;;;;;;;;;5034685;28;20522;-68
2021/08/13 04:46:41;;;;;;;43.97;25.53;;;;;;;;;;5032321;28;20265;-68
2021/08/13 04:49:07;;;;;;;36.43;23.27;;;;;;;;;;5006819;28;21025;-67
2021/08/13 04:51:32;;;;;;;30.45;20.50;;;;;;;;;;5034593;28;20495;-68
2021/08/13 04:53:57;;;;;;;29.73;20.35;;;;;;;;;;5034498;28;20182;-68
2021/08/13 04:56:22;;;;;;;28.27;20.05;;;;;;;;;;5034294;28;20667;-68
2021/08/13 04:58:47;;;;;;;28.57;18.80;;;;;;;;;;5016285;28;20230;-68
2021/08/13 05:01:12;;;;;;;25.60;19.35;;;;;;;;;;5034251;28;20454;-68
2021/08/13 05:03:38;;;;;;;26.27;18.35;;;;;;;;;;5034588;28;20174;-68
2021/08/13 05:06:03;;;;;;;27.70;18.60;;;;;;;;;;5033903;28;20182;-68
2021/08/13 05:08:28;;;;;;;23.13;16.60;;;;;;;;;;5034110;28;20190;-68
2021/08/13 05:10:53;;;;;;;24.77;17.33;;;;;;;;;;5016264;28;20211;-68
2021/08/13 05:13:18;;;;;;;24.47;16.87;;;;;;;;;;5034225;28;20183;-67
2021/08/13 05:15:43;;;;;;;25.07;15.60;;;;;;;;;;5034154;28;20418;-68
2021/08/13 05:18:09;;;;;;;21.33;14.77;;;;;;;;;;5034019;28;20461;-67
2021/08/13 05:20:34;;;;;;;20.48;14.90;;;;;;;;;;5034230;28;20171;-68
2021/08/13 05:22:59;;;;;;;19.48;14.35;;;;;;;;;;5033801;28;20202;-68
2021/08/13 05:25:24;;;;;;;18.77;13.32;;;;;;;;;;5015981;28;20173;-68
2021/08/13 05:27:49;;;;;;;18.05;13.00;;;;;;;;;;5033885;28;20190;-68
2021/08/13 05:30:15;;;;;;;17.17;12.80;;;;;;;;;;5033598;28;20569;-68
2021/08/13 05:32:41;;;;;;;19.42;14.70;;;;;;;;;;5033874;28;20415;-67
2021/08/13 05:35:07;;;;;;;16.92;12.55;;;;;;;;;;5033810;28;20663;-68
2021/08/13 05:37:33;;;;;;;15.98;12.20;;;;;;;;;;5033023;28;20284;-67
2021/08/13 05:39:58;;;;;;;15.80;12.50;;;;;;;;;;5033514;28;20217;-67
2021/08/13 05:42:23;;;;;;;15.47;11.50;;;;;;;;;;5033492;28;20682;-68
2021/08/13 05:44:48;;;;;;;15.18;12.02;;;;;;;;;;5033433;28;20404;-68
2021/08/13 05:47:13;;;;;;;13.23;11.43;;;;;;;;;;5033415;28;20204;-68
2021/08/13 05:49:39;;;;;;;15.25;11.63;;;;;;;;;;5022089;28;20166;-68
2021/08/13 05:52:04;;;;;;;16.03;12.13;;;;;;;;;;5015663;28;20269;-68
2021/08/13 05:54:30;;;;;;;14.45;11.90;;;;;;;;;;5014734;28;20419;-68
2021/08/13 05:56:56;;;;;;;13.68;11.60;;;;;;;;;;5033318;28;20198;-68
2021/08/13 05:59:21;;;;;;;13.43;11.23;;;;;;;;;;5033122;28;20656;-68
2021/08/13 06:01:46;;;;;;;13.93;11.03;;;;;;;;;;5033115;28;20194;-68
2021/08/13 06:04:12;;;;;;;12.80;10.90;;;;;;;;;;5033185;28;20426;-68
2021/08/13 06:06:37;;;;;;;17.00;11.27;;;;;;;;;;5032923;28;20492;-68
2021/08/13 06:09:03;;;;;;;12.85;10.52;;;;;;;;;;5033024;28;20596;-68
2021/08/13 06:11:28;;;;;;;15.35;10.77;;;;;;;;;;5033474;28;20288;-68
2021/08/13 06:13:53;;;;;;;13.95;11.13;;;;;;;;;;5033323;28;20316;-68
2021/08/13 06:16:19;;;;;;;15.47;10.93;;;;;;;;;;5032985;28;20212;-68
2021/08/13 06:18:44;;;;;;;13.90;10.77;;;;;;;;;;5032489;28;20439;-68
2021/08/13 06:21:09;;;;;;;14.73;10.82;;;;;;;;;;5032711;28;20202;-68
2021/08/13 06:23:35;;;;;;;11.20;9.77;;;;;;;;;;5033077;28;20194;-67
2021/08/13 06:26:00;;;;;;;16.93;11.80;;;;;;;;;;5032749;28;20186;-68
2021/08/13 06:28:25;;;;;;;14.73;11.45;;;;;;;;;;5032718;28;20510;-68
2021/08/13 06:30:50;;;;;;;12.75;10.40;;;;;;;;;;5014990;28;20699;-68
2021/08/13 06:33:15;;;;;;;10.60;9.40;;;;;;;;;;5032658;28;20175;-68
2021/08/13 06:35:41;;;;;;;13.90;9.50;;;;;;;;;;5032428;28;20174;-68
2021/08/13 06:38:07;;;;;;;16.85;10.65;;;;;;;;;;5032493;28;20264;-70
2021/08/13 06:40:33;;;;;;;12.80;9.55;;;;;;;;;;5032323;28;20175;-68
2021/08/13 06:42:58;;;;;;;12.10;9.98;;;;;;;;;;5031825;28;20281;-68
2021/08/13 06:45:23;;;;;;;14.57;10.50;;;;;;;;;;5032519;28;20600;-68
2021/08/13 06:47:49;;;;;;;14.93;9.82;;;;;;;;;;5030630;28;20420;-68
2021/08/13 06:50:14;;;;;;;14.35;9.35;;;;;;;;;;5026962;28;20662;-68
2021/08/13 06:52:40;;;;;;;13.25;9.15;;;;;;;;;;5032309;28;20183;-68
2021/08/13 06:55:05;;;;;;;13.32;9.00;;;;;;;;;;5032365;28;20205;-68
2021/08/13 06:57:31;;;;;;;13.23;8.70;;;;;;;;;;5032072;28;20201;-68
2021/08/13 06:59:56;;;;;;;11.23;8.70;;;;;;;;;;5031988;28;20178;-68
2021/08/13 07:02:21;;;;;;;9.57;7.83;;;;;;;;;;5031864;28;20564;-68
2021/08/13 07:04:46;;;;;;;10.50;7.75;;;;;;;;;;5032040;28;20434;-68
2021/08/13 07:07:13;;;;;;;9.00;7.03;;;;;;;;;;5031915;28;20194;-68
2021/08/13 07:09:39;;;;;;;9.70;7.68;;;;;;;;;;5032010;28;20487;-68
2021/08/13 07:12:04;;;;;;;11.27;7.65;;;;;;;;;;5031882;28;20313;-68
2021/08/13 07:14:29;;;;;;;10.00;7.22;;;;;;;;;;5031914;28;20214;-68
2021/08/13 07:16:54;;;;;;;12.07;7.90;;;;;;;;;;5031702;28;20655;-68
2021/08/13 07:19:19;;;;;;;9.30;7.30;;;;;;;;;;5031577;28;20493;-68
2021/08/13 07:21:45;;;;;;;11.27;7.50;;;;;;;;;;5034178;28;20239;-68
2021/08/13 07:24:10;;;;;;;10.70;7.17;;;;;;;;;;5037992;28;20174;-69
2021/08/13 07:26:35;;;;;;;9.98;7.53;;;;;;;;;;5034970;28;20506;-68
2021/08/13 07:29:00;;;;;;;10.07;7.80;;;;;;;;;;5031270;28;20530;-68
2021/08/13 07:31:25;;;;;;;14.03;8.03;;;;;;;;;;5031773;28;20453;-68
2021/08/13 07:33:50;;;;;;;12.60;7.80;;;;;;;;;;5031589;28;20469;-68
2021/08/13 07:36:16;;;;;;;13.05;8.07;;;;;;;;;;5031265;28;20414;-67
2021/08/13 07:38:41;;;;;;;9.48;7.43;;;;;;;;;;5031124;28;20198;-68
2021/08/13 07:41:07;;;;;;;8.10;7.30;;;;;;;;;;5031243;28;20230;-68
2021/08/13 07:43:32;;;;;;;11.70;7.03;;;;;;;;;;5031140;28;20197;-68
2021/08/13 07:45:57;;;;;;;10.10;7.22;;;;;;;;;;5030851;28;20643;-68
2021/08/13 07:48:22;;;;;;;10.03;7.30;;;;;;;;;;5024839;28;20198;-68
2021/08/13 07:50:47;;;;;;;9.43;7.63;;;;;;;;;;5027360;28;20499;-67
2021/08/13 07:53:13;;;;;;;11.73;7.10;;;;;;;;;;5031379;28;20938;-68
2021/08/13 07:55:38;;;;;;;10.37;7.57;;;;;;;;;;5011446;28;20431;-67
2021/08/13 07:58:03;;;;;;;11.37;7.57;;;;;;;;;;5030918;28;20423;-68
2021/08/13 08:00:28;;;;;;;10.43;7.13;;;;;;;;;;5030838;28;20404;-68
2021/08/13 08:02:54;;;;;;;9.40;7.60;;;;;;;;;;5031175;28;20458;-68
2021/08/13 08:05:19;;;;;;;8.35;6.55;;;;;;;;;;5031415;28;20221;-68
2021/08/13 08:07:44;;;;;;;10.93;6.40;;;;;;;;;;5031100;28;20194;-68
2021/08/13 08:10:10;;;;;;;12.98;8.07;;;;;;;;;;5030667;28;20213;-68
2021/08/13 08:12:35;;;;;;;9.50;6.85;;;;;;;;;;5031346;28;20182;-68
2021/08/13 08:15:00;;;;;;;9.00;6.27;;;;;;;;;;5030728;28;20647;-68
2021/08/13 08:17:25;;;;;;;10.37;5.83;;;;;;;;;;5047258;22;20486;-70
2021/08/13 08:19:51;;;;;;;11.65;6.22;;;;;;;;;;5050139;28;20438;-70
2021/08/13 08:22:17;;;;;;;8.57;5.67;;;;;;;;;;5051098;28;20296;-71
2021/08/13 08:24:42;;;;;;;11.93;5.47;;;;;;;;;;5050970;28;20414;-70
2021/08/13 08:27:07;;;;;;;10.77;4.28;;;;;;;;;;5049926;28;20423;-70
2021/08/13 08:29:32;;;;;;;10.27;4.72;;;;;;;;;;5050333;28;20166;-71
2021/08/13 08:31:58;;;;;;;7.95;3.90;;;;;;;;;;5033037;28;20300;-73
2021/08/13 08:34:23;;;;;;;6.87;4.43;;;;;;;;;;5033180;28;20173;-72
2021/08/13 08:36:48;;;;;;;7.30;4.57;;;;;;;;;;5050662;28;20415;-71
2021/08/13 08:39:13;;;;;;;9.07;4.13;;;;;;;;;;5050366;28;20178;-71
2021/08/13 08:41:38;;;;;;;11.32;4.30;;;;;;;;;;5050715;28;20959;-71
2021/08/13 08:44:04;;;;;;;7.70;3.72;;;;;;;;;;5050696;28;20169;-70
2021/08/13 08:46:30;;;;;;;7.82;3.55;;;;;;;;;;5050206;28;20162;-70
2021/08/13 08:48:55;;;;;;;8.13;3.85;;;;;;;;;;5047565;28;20197;-72
2021/08/13 08:51:21;;;;;;;6.13;3.42;;;;;;;;;;5050704;28;20170;-70
2021/08/13 08:53:50;;;;;;;6.28;3.58;;;;;;;;;;5050835;28;20659;-71
2021/08/13 08:56:17;;;;;;;9.80;4.05;;;;;;;;;;5050301;28;20185;-71
2021/08/13 08:58:44;;;;;;;8.20;3.55;;;;;;;;;;5050390;28;20316;-70
2021/08/13 09:01:11;;;;;;;8.20;4.88;;;;;;;;;;5050577;28;20674;-71
2021/08/13 09:03:36;;;;;;;7.72;4.25;;;;;;;;;;5050481;28;20205;-71
2021/08/13 09:06:03;;;;;;;6.07;3.65;;;;;;;;;;5050493;28;20208;-71
2021/08/13 09:08:29;;;;;;;5.68;3.80;;;;;;;;;;5050158;28;20239;-71
2021/08/13 09:10:54;;;;;;;6.07;3.88;;;;;;;;;;5050848;28;20671;-69
2021/08/13 09:13:23;;;;;;;5.50;4.22;;;;;;;;;;5050453;28;20180;-68
2021/08/13 09:15:48;;;;;;;4.93;4.13;;;;;;;;;;5050106;28;20322;-72
2021/08/13 09:18:14;;;;;;;8.03;4.53;;;;;;;;;;5050735;28;20242;-72
2021/08/13 09:20:41;;;;;;;6.75;3.88;;;;;;;;;;5050616;28;20406;-69
2021/08/13 09:23:06;;;;;;;6.72;3.65;;;;;;;;;;5050298;28;20208;-69
2021/08/13 09:25:32;;;;;;;5.65;3.38;;;;;;;;;;5050640;28;20599;-69
2021/08/13 09:27:57;;;;;;;6.35;3.17;;;;;;;;;;5050259;28;20734;-71
2021/08/13 09:30:22;;;;;;;3.60;2.90;;;;;;;;;;5053231;28;20251;-69
2021/08/13 09:32:58;;;;;;;6.10;3.40;;;;;;;;;;5054038;28;20177;-69
2021/08/13 09:35:49;;;;;;;4.90;3.15;;;;;;;;;;5046717;28;20699;-69
2021/08/13 09:38:14;;;;;;;6.78;3.22;;;;;;;;;;5050976;28;20213;-71
2021/08/13 09:40:41;;;;;;;4.00;2.57;;;;;;;;;;5053531;28;20665;-69
2021/08/13 09:43:06;;;;;;;6.05;3.10;;;;;;;;;;5053640;28;20557;-70
2021/08/13 09:45:32;;;;;;;5.80;2.85;;;;;;;;;;5053997;28;20467;-69
2021/08/13 09:47:57;;;;;;;3.97;3.03;;;;;;;;;;5051664;28;20232;-70
2021/08/13 09:50:34;;;;;;;8.27;3.00;;;;;;;;;;5062772;28;20174;-70
2021/08/13 09:53:12;;;;;;;4.03;2.97;;;;;;;;;;5061781;28;20196;-72
2021/08/13 09:55:38;;;;;;;5.05;3.10;;;;;;;;;;5053231;28;20256;-73
2021/08/13 09:58:05;;;;;;;5.03;3.30;;;;;;;;;;5053342;28;20288;-69
2021/08/13 10:00:30;;;;;;;3.85;2.90;;;;;;;;;;5053046;28;20647;-69
2021/08/13 10:03:03;;;;;;;6.43;4.10;;;;;;;;;;5053164;28;20234;-68
2021/08/13 10:05:28;;;;;;;5.32;3.55;;;;;;;;;;5047688;28;20270;-70
2021/08/13 10:08:00;;;;;;;8.87;5.00;;;;;;;;;;5053075;28;20718;-69
2021/08/13 10:10:29;;;;;;;8.95;4.43;;;;;;;;;;5047604;28;20642;-70
2021/08/13 10:12:54;;;;;;;9.68;4.90;;;;;;;;;;5054137;28;20178;-73
2021/08/13 10:15:47;;;;;;;9.90;5.30;;;;;;;;;;5052840;28;20169;-69
2021/08/13 10:18:14;;;;;;;4.30;2.92;;;;;;;;;;5050862;28;20232;-71
2021/08/13 10:20:43;;;;;;;6.22;4.03;;;;;;;;;;5052699;28;20584;-70
2021/08/13 10:23:09;;;;;;;6.65;3.85;;;;;;;;;;5052733;28;20197;-70
2021/08/13 10:25:35;;;;;;;4.75;3.15;;;;;;;;;;5052751;28;20644;-70
2021/08/13 10:28:00;;;;;;;3.47;2.35;;;;;;;;;;5052820;28;20209;-70
2021/08/13 10:30:25;;;;;;;4.13;3.10;;;;;;;;;;5052462;28;20659;-70
2021/08/13 10:32:52;;;;;;;4.78;2.95;;;;;;;;;;5053012;28;20494;-69
2021/08/13 10:35:18;;;;;;;5.47;2.28;;;;;;;;;;5052837;28;20182;-69
2021/08/13 10:37:43;;;;;;;3.83;2.25;;;;;;;;;;5052621;28;20259;-70
2021/08/13 10:40:09;;;;;;;3.95;2.88;;;;;;;;;;5051515;28;20205;-69
2021/08/13 10:42:36;;;;;;;2.85;1.90;;;;;;;;;;5052675;28;20205;-71
2021/08/13 10:45:03;;;;;;;5.45;1.88;;;;;;;;;;5052104;28;20200;-70
2021/08/13 10:47:30;;;;;;;4.60;2.22;;;;;;;;;;5052316;28;20190;-69
2021/08/13 10:49:57;;;;;;;3.65;1.40;;;;;;;;;;5051145;28;20192;-70
2021/08/13 10:52:35;;;;;;;5.28;1.95;;;;;;;;;;5052472;28;20546;-70
2021/08/13 10:55:01;;;;;;;4.07;1.70;;;;;;;;;;5049324;28;20188;-70
2021/08/13 10:57:58;;;;;;;4.55;2.10;;;;;;;;;;5051878;28;20190;-70
2021/08/13 11:00:23;;;;;;;5.15;1.98;;;;;;;;;;5032861;28;20181;-70
2021/08/13 11:03:07;;;;;;;5.13;2.20;;;;;;;;;;5052002;28;20224;-70
2021/08/13 11:05:52;;;;;;;7.65;1.92;;;;;;;;;;5047314;28;20930;-70
2021/08/13 11:08:18;;;;;;;6.18;2.80;;;;;;;;;;5051516;28;20635;-72
2021/08/13 11:10:49;;;;;;;7.13;2.10;;;;;;;;;;5051595;28;20174;-70
2021/08/13 11:13:17;;;;;;;3.80;1.95;;;;;;;;;;5051224;28;20493;-71
2021/08/13 11:15:42;;;;;;;4.53;2.00;;;;;;;;;;5051589;28;20181;-71
2021/08/13 11:18:27;;;;;;;5.47;2.30;;;;;;;;;;5051849;28;20223;-71
2021/08/13 11:20:52;;;;;;;4.05;2.20;;;;;;;;;;5048651;28;20185;-68
2021/08/13 11:23:17;;;;;;;5.30;2.17;;;;;;;;;;5051648;28;20177;-69
2021/08/13 11:25:47;;;;;;;7.43;2.20;;;;;;;;;;5051686;28;20607;-68
2021/08/13 11:28:19;;;;;;;5.78;2.47;;;;;;;;;;5051627;28;20217;-68
2021/08/13 11:30:45;;;;;;;6.38;2.50;;;;;;;;;;5051581;28;20230;-68
2021/08/13 11:33:33;;;;;;;5.50;2.10;;;;;;;;;;5051663;28;20598;-69
2021/08/13 11:35:59;;;;;;;5.53;2.35;;;;;;;;;;5048150;28;20181;-69
2021/08/13 11:38:43;;;;;;;4.18;2.05;;;;;;;;;;5051145;28;20726;-69
2021/08/13 11:41:20;;;;;;;3.92;2.22;;;;;;;;;;5051184;28;20188;-69
2021/08/13 11:43:46;;;;;;;5.25;2.33;;;;;;;;;;5051542;28;20650;-69
2021/08/13 11:46:21;;;;;;;5.50;3.17;;;;;;;;;;5050476;28;20170;-70
2021/08/13 11:48:47;;;;;;;6.05;2.65;;;;;;;;;;5043249;28;20722;-69
2021/08/13 11:51:12;;;;;;;7.28;2.20;;;;;;;;;;5050745;28;20647;-69
2021/08/13 11:53:38;;;;;;;5.35;2.47;;;;;;;;;;5051171;28;20177;-69
2021/08/13 11:56:04;;;;;;;4.78;1.92;;;;;;;;;;5051113;28;20653;-69
2021/08/13 11:58:29;;;;;;;8.07;2.55;;;;;;;;;;5050828;28;20275;-70
2021/08/13 12:01:01;;;;;;;5.27;3.00;;;;;;;;;;5051311;28;20686;-70
2021/08/13 12:03:27;;;;;;;7.13;2.95;;;;;;;;;;5051046;28;20189;-70
2021/08/13 12:05:52;;;;;;;6.88;2.03;;;;;;;;;;5051135;28;20205;-70
2021/08/13 12:08:17;;;;;;;5.63;2.67;;;;;;;;;;5051195;28;20200;-70
2021/08/13 12:10:46;;;;;;;10.67;4.50;;;;;;;;;;5050712;28;20437;-69
2021/08/13 12:13:11;;;;;;;6.32;2.70;;;;;;;;;;5051205;28;20786;-70
2021/08/13 12:15:37;;;;;;;5.28;2.35;;;;;;;;;;5050889;28;20186;-70
2021/08/13 12:18:04;;;;;;;7.85;2.92;;;;;;;;;;5050871;28;20586;-69
2021/08/13 12:20:30;;;;;;;7.43;2.60;;;;;;;;;;5050696;28;20174;-70
2021/08/13 12:23:03;;;;;;;7.53;2.30;;;;;;;;;;5050915;28;20208;-70
2021/08/13 12:25:32;;;;;;;7.40;3.20;;;;;;;;;;5049582;28;20307;-70
2021/08/13 12:27:58;;;;;;;5.95;2.22;;;;;;;;;;5050744;28;20189;-70
2021/08/13 12:30:23;;;;;;;10.52;2.72;;;;;;;;;;5050796;28;20526;-71
2021/08/13 12:32:49;;;;;;;4.57;2.40;;;;;;;;;;5050964;28;20174;-69
2021/08/13 12:35:14;;;;;;;6.45;2.03;;;;;;;;;;5050721;28;20178;-70
2021/08/13 12:37:40;;;;;;;7.03;2.40;;;;;;;;;;5050538;28;20197;-70
2021/08/13 12:40:06;;;;;;;5.78;2.22;;;;;;;;;;5050298;28;20252;-70
2021/08/13 12:42:32;;;;;;;5.57;2.30;;;;;;;;;;5050887;28;20410;-68
2021/08/13 12:44:58;;;;;;;6.28;2.70;;;;;;;;;;5051072;28;20170;-69
2021/08/13 12:47:23;;;;;;;8.50;2.25;;;;;;;;;;5050505;28;20269;-69
2021/08/13 12:49:49;;;;;;;7.70;2.65;;;;;;;;;;5047428;28;20257;-69
2021/08/13 12:52:21;;;;;;;7.13;2.53;;;;;;;;;;5050641;28;20177;-69
2021/08/13 12:54:48;;;;;;;6.70;2.40;;;;;;;;;;5045918;28;20548;-68
2021/08/13 12:57:13;;;;;;;7.88;2.25;;;;;;;;;;5050457;28;20246;-69
2021/08/13 12:59:41;;;;;;;7.70;2.67;;;;;;;;;;5050375;28;20181;-69
2021/08/13 13:02:06;;;;;;;5.57;2.53;;;;;;;;;;5050739;28;20193;-69
2021/08/13 13:04:41;;;;;;;7.10;2.60;;;;;;;;;;5054010;28;20698;-69
2021/08/13 13:07:07;;;;;;;8.25;2.60;;;;;;;;;;5054175;28;20674;-69
2021/08/13 13:09:33;;;;;;;10.27;4.50;;;;;;;;;;5054172;28;20196;-70
2021/08/13 13:12:19;;;;;;;19.48;13.23;;;;;;;;;;5054350;28;20220;-72
2021/08/13 13:14:44;;;;;;;9.73;3.22;;;;;;;;;;5054417;28;20173;-71
2021/08/13 13:17:10;;;;;;;13.90;8.65;;;;;;;;;;5053813;28;20277;-70
2021/08/13 13:19:36;;;;;;;7.78;3.95;;;;;;;;;;5053886;28;20338;-69
2021/08/13 13:22:13;;;;;;;13.85;7.63;;;;;;;;;;5053838;28;20288;-69
2021/08/13 13:24:39;;;;;;;9.80;6.45;;;;;;;;;;5054141;28;20173;-70
2021/08/13 13:27:04;;;;;;;17.27;9.25;;;;;;;;;;5054140;28;20216;-69
2021/08/13 13:29:33;;;;;;;12.57;4.75;;;;;;;;;;5053806;28;20170;-70
2021/08/13 13:31:59;;;;;;;8.63;5.30;;;;;;;;;;5035840;28;20452;-69
2021/08/13 13:34:24;;;;;;;5.03;2.40;;;;;;;;;;5035995;28;20549;-70
2021/08/13 13:36:49;;;;;;;7.30;1.80;;;;;;;;;;5053467;28;20447;-70
2021/08/13 13:39:15;;;;;;;7.80;2.30;;;;;;;;;;5053604;28;20196;-69
2021/08/13 13:41:40;;;;;;;7.05;2.58;;;;;;;;;;5053755;28;20243;-70
2021/08/13 13:44:05;;;;;;;8.10;2.47;;;;;;;;;;5053919;28;20211;-70
2021/08/13 13:46:31;;;;;;;5.97;1.80;;;;;;;;;;5053192;28;20174;-70
2021/08/13 13:48:56;;;;;;;5.50;2.30;;;;;;;;;;5050758;28;20466;-69
2021/08/13 13:51:21;;;;;;;7.20;2.57;;;;;;;;;;5053579;28;20417;-70
2021/08/13 13:53:46;;;;;;;6.43;2.30;;;;;;;;;;5053631;28;20425;-70
2021/08/13 13:56:12;;;;;;;8.20;2.47;;;;;;;;;;5053125;28;20435;-71
2021/08/13 13:58:37;;;;;;;9.63;2.60;;;;;;;;;;5053128;28;20212;-70
2021/08/13 14:01:02;;;;;;;5.72;2.53;;;;;;;;;;5053202;28;20174;-70
2021/08/13 14:03:27;;;;;;;7.65;2.75;;;;;;;;;;5053386;28;20170;-71
2021/08/13 14:05:52;;;;;;;12.37;2.90;;;;;;;;;;5053586;28;20177;-70
2021/08/13 14:08:18;;;;;;;6.47;2.25;;;;;;;;;;5052857;28;20193;-71
2021/08/13 14:10:43;;;;;;;7.15;3.38;;;;;;;;;;5053184;28;20177;-70
2021/08/13 14:13:08;;;;;;;6.75;1.88;;;;;;;;;;5053124;28;20182;-70
2021/08/13 14:15:36;;;;;;;5.53;1.92;;;;;;;;;;5052425;28;20537;-70
2021/08/13 14:18:01;;;;;;;5.95;2.17;;;;;;;;;;5065422;22;20238;-68
2021/08/13 14:20:27;;;;;;;5.30;2.20;;;;;;;;;;5059339;28;20667;-68
2021/08/13 14:22:52;;;;;;;6.15;2.30;;;;;;;;;;5059750;28;20202;-68
2021/08/13 14:25:19;;;;;;;6.95;2.20;;;;;;;;;;5038275;28;20174;-68